Terminal Aerodrome Forecast
Issued by NWS

Home | Current Version | Previous Version | Text Only | Print | Product List | Glossary On
Versions: 1 2 3 4 5 6 7 8 9 10 11 12 13
000
FTUS46 KMTR 250625 RRA
TAFSJC
TAF
KSJC 250625Z 2506/2606 VRB02KT P6SM SCT040
     FM251200 VRB03KT P6SM BKN030
     FM251800 VRB04KT P6SM BKN100
     FM252100 31010KT P6SM BKN100
     FM260300 29005KT P6SM SCT060 BKN100=

USA.gov is the U.S. government's official web portal to all federal, state and local government web resources and services.